Aviation Digital Data Service (ADDS)

Output produced by METARs form (0439 UTC 03 September 2014)
found at http://www.aviationweather.gov/adds/metars/
 
KJFK 030301Z 0303/0406 22012G20KT P6SM SCT060 BKN200 
     FM030500 27010KT P6SM FEW060 SCT200 
     TEMPO 0305/0308 27010G17KT 
     FM031000 32011KT P6SM SCT250 
     FM031800 28009KT P6SM SKC 
     FM032100 21008KT P6SM SKC